Ust' Kalmanka, Russia
Current Conditions -  °F | °C
As of 8:00 PM on Friday 31 Oct 2014 (Local Time) from UNBB Reporting Station
Light Rain Light Rain  
Wind Chill: -5°   Ceiling: 1300
Heat Index:   Visibility: 3mi
Dew Point: -1°   Wind: 18mph
Humidity: 87%   Direction: 230°SW
Pressure: 30.36"   Gusts: NA
Location:  52.12°N, 83.32°E
Report Text: UNBB 311300Z 23008MPS 5000 -RA BR BKN013 01/M01 Q1028 NOSIG RMKQFE748/0998 24290151
Loading
Personal Weather Stations






























Interactive Weather Map
Tropical Storm Tracking
New forecast layout! Learn more

10-Day Weather Forecast

Advertisements
Track Severe Weather on mobile